sensor_id;sensor_type;location;lat;lon;timestamp;pressure;altitude;pressure_sealevel;temperature;humidity
18323;BME280;9287;49.456;11.064;2023-02-28T00:01:08;99047.81;;;-1.86;100.00
18323;BME280;9287;49.456;11.064;2023-02-28T00:03:36;99041.97;;;-1.83;99.53
18323;BME280;9287;49.456;11.064;2023-02-28T00:06:06;99037.53;;;-1.94;100.00
18323;BME280;9287;49.456;11.064;2023-02-28T00:08:36;99041.19;;;-2.00;100.00
18323;BME280;9287;49.456;11.064;2023-02-28T00:11:06;99047.94;;;-1.98;100.00
18323;BME280;9287;49.456;11.064;2023-02-28T00:13:36;99045.25;;;-1.98;100.00
18323;BME280;9287;49.456;11.064;2023-02-28T00:16:06;99032.19;;;-1.94;100.00
18323;BME280;9287;49.456;11.064;2023-02-28T00:18:35;99042.81;;;-1.99;100.00
18323;BME280;9287;49.456;11.064;2023-02-28T00:21:03;99036.81;;;-2.06;100.00
18323;BME280;9287;49.456;11.064;2023-02-28T00:23:31;99032.59;;;-2.02;100.00
18323;BME280;9287;49.456;11.064;2023-02-28T00:26:01;99041.19;;;-2.00;100.00
18323;BME280;9287;49.456;11.064;2023-02-28T00:28:29;99028.50;;;-1.88;100.00
18323;BME280;9287;49.456;11.064;2023-02-28T00:30:56;99026.84;;;-1.94;100.00
18323;BME280;9287;49.456;11.064;2023-02-28T00:33:26;99042.47;;;-1.86;99.99
18323;BME280;9287;49.456;11.064;2023-02-28T00:36:02;99039.56;;;-2.01;100.00
18323;BME280;9287;49.456;11.064;2023-02-28T00:38:30;99047.19;;;-1.93;100.00
18323;BME280;9287;49.456;11.064;2023-02-28T00:40:58;99039.75;;;-2.08;100.00
18323;BME280;9287;49.456;11.064;2023-02-28T00:43:33;99039.34;;;-2.17;100.00
18323;BME280;9287;49.456;11.064;2023-02-28T00:46:01;99045.50;;;-1.99;100.00
18323;BME280;9287;49.456;11.064;2023-02-28T00:48:30;99036.97;;;-1.96;100.00
18323;BME280;9287;49.456;11.064;2023-02-28T00:50:58;99030.97;;;-2.03;100.00
18323;BME280;9287;49.456;11.064;2023-02-28T00:53:26;99035.50;;;-2.04;100.00
18323;BME280;9287;49.456;11.064;2023-02-28T00:55:53;99029.84;;;-2.07;100.00
18323;BME280;9287;49.456;11.064;2023-02-28T00:58:21;99032.59;;;-2.02;100.00
18323;BME280;9287;49.456;11.064;2023-02-28T01:00:51;99027.72;;;-2.05;100.00
18323;BME280;9287;49.456;11.064;2023-02-28T01:03:20;99026.66;;;-2.04;100.00
18323;BME280;9287;49.456;11.064;2023-02-28T01:05:48;99035.75;;;-2.05;100.00
18323;BME280;9287;49.456;11.064;2023-02-28T01:08:16;99019.47;;;-2.04;100.00
18323;BME280;9287;49.456;11.064;2023-02-28T01:10:44;99020.75;;;-2.06;100.00
18323;BME280;9287;49.456;11.064;2023-02-28T01:13:13;99024.16;;;-1.94;100.00
18323;BME280;9287;49.456;11.064;2023-02-28T01:15:44;99016.53;;;-2.02;100.00
18323;BME280;9287;49.456;11.064;2023-02-28T01:18:14;99016.84;;;-1.99;100.00
18323;BME280;9287;49.456;11.064;2023-02-28T01:20:41;99015.41;;;-2.06;100.00
18323;BME280;9287;49.456;11.064;2023-02-28T01:23:09;99017.91;;;-2.00;100.00
18323;BME280;9287;49.456;11.064;2023-02-28T01:25:37;99018.25;;;-1.96;100.00
18323;BME280;9287;49.456;11.064;2023-02-28T01:28:05;99016.53;;;-2.02;100.00
18323;BME280;9287;49.456;11.064;2023-02-28T01:30:34;99019.13;;;-2.07;100.00
18323;BME280;9287;49.456;11.064;2023-02-28T01:33:02;99001.53;;;-2.03;100.00
18323;BME280;9287;49.456;11.064;2023-02-28T01:35:33;99011.66;;;-2.05;100.00
18323;BME280;9287;49.456;11.064;2023-02-28T01:38:01;99007.81;;;-2.15;100.00
18323;BME280;9287;49.456;11.064;2023-02-28T01:40:46;99006.84;;;-2.08;100.00
18323;BME280;9287;49.456;11.064;2023-02-28T01:43:20;99015.34;;;-2.12;100.00
18323;BME280;9287;49.456;11.064;2023-02-28T01:45:48;98995.59;;;-2.05;100.00
18323;BME280;9287;49.456;11.064;2023-02-28T01:48:16;99000.97;;;-2.05;100.00
18323;BME280;9287;49.456;11.064;2023-02-28T01:50:47;99001.47;;;-2.08;100.00
18323;BME280;9287;49.456;11.064;2023-02-28T01:53:18;99008.13;;;-2.11;100.00
18323;BME280;9287;49.456;11.064;2023-02-28T01:55:48;99009.91;;;-2.17;100.00
18323;BME280;9287;49.456;11.064;2023-02-28T01:58:17;99001.31;;;-2.19;100.00
18323;BME280;9287;49.456;11.064;2023-02-28T02:00:45;98990.69;;;-2.14;100.00
18323;BME280;9287;49.456;11.064;2023-02-28T02:03:16;99001.31;;;-2.19;100.00
18323;BME280;9287;49.456;11.064;2023-02-28T02:05:47;98998.06;;;-2.21;100.00
18323;BME280;9287;49.456;11.064;2023-02-28T02:08:19;98992.88;;;-2.11;100.00
18323;BME280;9287;49.456;11.064;2023-02-28T02:10:51;98997.59;;;-2.18;100.00
18323;BME280;9287;49.456;11.064;2023-02-28T02:13:29;98990.28;;;-2.22;100.00
18323;BME280;9287;49.456;11.064;2023-02-28T02:16:10;98987.84;;;-2.24;100.00
18323;BME280;9287;49.456;11.064;2023-02-28T02:18:43;98991.56;;;-2.25;100.00
18323;BME280;9287;49.456;11.064;2023-02-28T02:24:53;98986.72;;;-2.28;100.00
18323;BME280;9287;49.456;11.064;2023-02-28T02:27:37;98974.91;;;-2.32;100.00
18323;BME280;9287;49.456;11.064;2023-02-28T02:30:21;98976.53;;;-2.31;100.00
18323;BME280;9287;49.456;11.064;2023-02-28T02:33:17;98978.28;;;-2.36;100.00
18323;BME280;9287;49.456;11.064;2023-02-28T02:35:54;98980.72;;;-2.35;100.00
18323;BME280;9287;49.456;11.064;2023-02-28T02:38:36;98976.91;;;-2.39;100.00
18323;BME280;9287;49.456;11.064;2023-02-28T02:41:14;98980.06;;;-2.42;100.00
18323;BME280;9287;49.456;11.064;2023-02-28T02:43:47;98978.63;;;-2.33;100.00
18323;BME280;9287;49.456;11.064;2023-02-28T02:46:19;98977.22;;;-2.19;100.00
18323;BME280;9287;49.456;11.064;2023-02-28T02:48:48;98975.38;;;-2.35;100.00
18323;BME280;9287;49.456;11.064;2023-02-28T02:51:21;98967.94;;;-2.33;100.00
18323;BME280;9287;49.456;11.064;2023-02-28T02:53:53;98982.44;;;-2.29;100.00
18323;BME280;9287;49.456;11.064;2023-02-28T02:56:25;98979.34;;;-2.37;100.00
18323;BME280;9287;49.456;11.064;2023-02-28T02:58:57;98984.13;;;-2.39;100.00
18323;BME280;9287;49.456;11.064;2023-02-28T03:01:27;98982.22;;;-2.44;100.00
18323;BME280;9287;49.456;11.064;2023-02-28T03:03:59;98977.34;;;-2.47;100.00
18323;BME280;9287;49.456;11.064;2023-02-28T03:06:31;98979.94;;;-2.52;100.00
18323;BME280;9287;49.456;11.064;2023-02-28T03:09:00;98984.78;;;-2.49;100.00
18323;BME280;9287;49.456;11.064;2023-02-28T03:11:29;98988.03;;;-2.47;100.00
18323;BME280;9287;49.456;11.064;2023-02-28T03:14:25;98978.63;;;-2.50;100.00
18323;BME280;9287;49.456;11.064;2023-02-28T03:17:09;98984.47;;;-2.53;100.00
18323;BME280;9287;49.456;11.064;2023-02-28T03:19:47;98978.88;;;-2.51;100.00
18323;BME280;9287;49.456;11.064;2023-02-28T03:22:31;98982.69;;;-2.47;100.00
18323;BME280;9287;49.456;11.064;2023-02-28T03:25:06;98984.78;;;-2.49;100.00
18323;BME280;9287;49.456;11.064;2023-02-28T03:27:38;98979.94;;;-2.52;100.00
18323;BME280;9287;49.456;11.064;2023-02-28T03:30:13;98988.53;;;-2.50;100.00
18323;BME280;9287;49.456;11.064;2023-02-28T03:32:51;98984.78;;;-2.49;100.00
18323;BME280;9287;49.456;11.064;2023-02-28T03:35:22;98986.31;;;-2.53;100.00
18323;BME280;9287;49.456;11.064;2023-02-28T03:37:58;98986.75;;;-2.44;100.00
18323;BME280;9287;49.456;11.064;2023-02-28T03:40:32;98986.91;;;-2.51;100.00
18323;BME280;9287;49.456;11.064;2023-02-28T03:43:03;98983.81;;;-2.43;100.00
18323;BME280;9287;49.456;11.064;2023-02-28T03:45:34;98985.69;;;-2.43;100.00
18323;BME280;9287;49.456;11.064;2023-02-28T03:48:06;98992.09;;;-2.44;100.00
18323;BME280;9287;49.456;11.064;2023-02-28T03:50:39;98986.50;;;-2.43;100.00
18323;BME280;9287;49.456;11.064;2023-02-28T03:53:11;98985.28;;;-2.52;100.00
18323;BME280;9287;49.456;11.064;2023-02-28T03:55:43;98986.41;;;-2.48;100.00
18323;BME280;9287;49.456;11.064;2023-02-28T03:58:16;98996.44;;;-2.38;100.00
18323;BME280;9287;49.456;11.064;2023-02-28T04:00:49;98989.25;;;-2.38;100.00
18323;BME280;9287;49.456;11.064;2023-02-28T04:03:20;98995.00;;;-2.46;100.00
18323;BME280;9287;49.456;11.064;2023-02-28T04:05:50;98989.19;;;-2.43;100.00
18323;BME280;9287;49.456;11.064;2023-02-28T04:08:20;98998.25;;;-2.44;100.00
18323;BME280;9287;49.456;11.064;2023-02-28T04:10:55;99000.50;;;-2.36;100.00
18323;BME280;9287;49.456;11.064;2023-02-28T04:13:24;98991.75;;;-2.31;100.00
18323;BME280;9287;49.456;11.064;2023-02-28T04:15:51;98998.78;;;-2.42;100.00
18323;BME280;9287;49.456;11.064;2023-02-28T04:18:19;98996.78;;;-2.35;100.00
18323;BME280;9287;49.456;11.064;2023-02-28T04:20:47;99001.16;;;-2.29;100.00
18323;BME280;9287;49.456;11.064;2023-02-28T04:23:14;98993.88;;;-2.33;100.00
18323;BME280;9287;49.456;11.064;2023-02-28T04:25:43;98999.22;;;-2.33;100.00
18323;BME280;9287;49.456;11.064;2023-02-28T04:28:11;98995.00;;;-2.29;100.00
18323;BME280;9287;49.456;11.064;2023-02-28T04:30:39;98992.66;;;-2.26;100.00
18323;BME280;9287;49.456;11.064;2023-02-28T04:33:06;98994.53;;;-2.26;100.00
18323;BME280;9287;49.456;11.064;2023-02-28T04:35:34;98998.66;;;-2.35;100.00
18323;BME280;9287;49.456;11.064;2023-02-28T04:38:02;98989.31;;;-2.33;100.00
18323;BME280;9287;49.456;11.064;2023-02-28T04:40:30;98992.56;;;-2.31;100.00
18323;BME280;9287;49.456;11.064;2023-02-28T04:42:59;98993.72;;;-2.27;100.00
18323;BME280;9287;49.456;11.064;2023-02-28T04:45:26;98994.69;;;-2.33;100.00
18323;BME280;9287;49.456;11.064;2023-02-28T04:47:56;98992.91;;;-2.27;100.00
18323;BME280;9287;49.456;11.064;2023-02-28T04:50:24;98995.50;;;-2.32;100.00
18323;BME280;9287;49.456;11.064;2023-02-28T04:52:51;98996.78;;;-2.35;100.00
18323;BME280;9287;49.456;11.064;2023-02-28T04:55:19;98990.28;;;-2.39;100.00
18323;BME280;9287;49.456;11.064;2023-02-28T04:57:47;98989.31;;;-2.33;100.00
18323;BME280;9287;49.456;11.064;2023-02-28T05:00:17;98986.16;;;-2.30;100.00
18323;BME280;9287;49.456;11.064;2023-02-28T05:02:44;98987.22;;;-2.31;100.00
18323;BME280;9287;49.456;11.064;2023-02-28T05:05:12;98997.50;;;-2.39;100.00
18323;BME280;9287;49.456;11.064;2023-02-28T05:07:44;99002.13;;;-2.35;100.00
18323;BME280;9287;49.456;11.064;2023-02-28T05:10:12;98997.75;;;-2.41;100.00
18323;BME280;9287;49.456;11.064;2023-02-28T05:12:40;99003.75;;;-2.34;100.00
18323;BME280;9287;49.456;11.064;2023-02-28T05:15:08;98993.53;;;-2.37;100.00
18323;BME280;9287;49.456;11.064;2023-02-28T05:17:41;99007.47;;;-2.35;100.00
18323;BME280;9287;49.456;11.064;2023-02-28T05:20:09;99001.66;;;-2.32;100.00
18323;BME280;9287;49.456;11.064;2023-02-28T05:22:41;99007.47;;;-2.35;100.00
18323;BME280;9287;49.456;11.064;2023-02-28T05:25:10;99006.34;;;-2.39;100.00
18323;BME280;9287;49.456;11.064;2023-02-28T05:27:39;99006.81;;;-2.42;100.00
18323;BME280;9287;49.456;11.064;2023-02-28T05:30:08;99009.09;;;-2.34;100.00
18323;BME280;9287;49.456;11.064;2023-02-28T05:32:39;99012.25;;;-2.37;100.00
18323;BME280;9287;49.456;11.064;2023-02-28T05:35:11;99009.59;;;-2.37;100.00
18323;BME280;9287;49.456;11.064;2023-02-28T05:37:39;99014.47;;;-2.34;100.00
18323;BME280;9287;49.456;11.064;2023-02-28T05:40:08;99009.59;;;-2.37;100.00
18323;BME280;9287;49.456;11.064;2023-02-28T05:42:36;99014.94;;;-2.37;100.00
18323;BME280;9287;49.456;11.064;2023-02-28T05:45:05;99011.38;;;-2.26;100.00
18323;BME280;9287;49.456;11.064;2023-02-28T05:47:34;99005.94;;;-2.31;100.00
18323;BME280;9287;49.456;11.064;2023-02-28T05:50:03;99012.84;;;-2.35;100.00
18323;BME280;9287;49.456;11.064;2023-02-28T05:52:32;99008.63;;;-2.31;100.00
18323;BME280;9287;49.456;11.064;2023-02-28T05:55:00;99011.06;;;-2.46;100.00
18323;BME280;9287;49.456;11.064;2023-02-28T05:57:27;99006.81;;;-2.42;100.00
18323;BME280;9287;49.456;11.064;2023-02-28T05:59:55;99017.13;;;-2.34;100.00
18323;BME280;9287;49.456;11.064;2023-02-28T06:02:23;99022.25;;;-2.49;100.00
18323;BME280;9287;49.456;11.064;2023-02-28T06:04:51;99011.53;;;-2.49;100.00
18323;BME280;9287;49.456;11.064;2023-02-28T06:07:19;99013.97;;;-2.48;100.00
18323;BME280;9287;49.456;11.064;2023-02-28T06:09:50;99021.75;;;-2.46;100.00
18323;BME280;9287;49.456;11.064;2023-02-28T06:12:18;99025.00;;;-2.44;100.00
18323;BME280;9287;49.456;11.064;2023-02-28T06:14:46;99025.00;;;-2.44;100.00
18323;BME280;9287;49.456;11.064;2023-02-28T06:17:14;99022.38;;;-2.39;100.00
18323;BME280;9287;49.456;11.064;2023-02-28T06:19:41;99029.94;;;-2.36;100.00
18323;BME280;9287;49.456;11.064;2023-02-28T06:22:09;99019.09;;;-2.46;100.00
18323;BME280;9287;49.456;11.064;2023-02-28T06:24:37;99028.41;;;-2.32;100.00
18323;BME280;9287;49.456;11.064;2023-02-28T06:27:06;99028.88;;;-2.35;100.00
18323;BME280;9287;49.456;11.064;2023-02-28T06:29:34;99028.88;;;-2.35;100.00
18323;BME280;9287;49.456;11.064;2023-02-28T06:32:02;99040.53;;;-2.41;100.00
18323;BME280;9287;49.456;11.064;2023-02-28T06:34:30;99028.88;;;-2.35;100.00
18323;BME280;9287;49.456;11.064;2023-02-28T06:36:58;99034.38;;;-2.25;100.00
18323;BME280;9287;49.456;11.064;2023-02-28T06:39:28;99033.91;;;-2.22;100.00
18323;BME280;9287;49.456;11.064;2023-02-28T06:41:56;99045.34;;;-2.09;100.00
18323;BME280;9287;49.456;11.064;2023-02-28T06:44:25;99043.63;;;-2.16;100.00
18323;BME280;9287;49.456;11.064;2023-02-28T06:46:53;99052.88;;;-2.06;100.00
18323;BME280;9287;49.456;11.064;2023-02-28T06:49:21;99046.88;;;-1.97;100.00
18323;BME280;9287;49.456;11.064;2023-02-28T06:51:48;99053.03;;;-1.96;100.00
18323;BME280;9287;49.456;11.064;2023-02-28T06:54:16;99052.31;;;-1.92;100.00
18323;BME280;9287;49.456;11.064;2023-02-28T06:56:44;99047.34;;;-1.83;100.00
18323;BME280;9287;49.456;11.064;2023-02-28T06:59:13;99048.47;;;-1.79;100.00
18323;BME280;9287;49.456;11.064;2023-02-28T07:01:42;99049.59;;;-1.75;100.00
18323;BME280;9287;49.456;11.064;2023-02-28T07:04:10;99056.59;;;-1.52;100.00
18323;BME280;9287;49.456;11.064;2023-02-28T07:06:39;99047.13;;;-1.60;100.00
18323;BME280;9287;49.456;11.064;2023-02-28T07:09:07;99057.00;;;-1.44;100.00
18323;BME280;9287;49.456;11.064;2023-02-28T07:11:37;99063.59;;;-1.29;100.00
18323;BME280;9287;49.456;11.064;2023-02-28T07:14:04;99066.66;;;-1.43;100.00
18323;BME280;9287;49.456;11.064;2023-02-28T07:16:32;99063.47;;;-1.39;100.00
18323;BME280;9287;49.456;11.064;2023-02-28T07:19:01;99065.22;;;-1.28;100.00
18323;BME280;9287;49.456;11.064;2023-02-28T07:21:29;99068.84;;;-1.39;100.00
18323;BME280;9287;49.456;11.064;2023-02-28T07:23:57;99066.22;;;-1.34;100.00
18323;BME280;9287;49.456;11.064;2023-02-28T07:26:25;99075.00;;;-1.17;99.35
18323;BME280;9287;49.456;11.064;2023-02-28T07:28:53;99071.16;;;-1.26;100.00
18323;BME280;9287;49.456;11.064;2023-02-28T07:31:21;99076.31;;;-0.98;97.44
18323;BME280;9287;49.456;11.064;2023-02-28T07:33:49;99075.19;;;-1.02;96.14
18323;BME280;9287;49.456;11.064;2023-02-28T07:36:18;99074.09;;;-1.06;97.70
18323;BME280;9287;49.456;11.064;2023-02-28T07:38:47;99068.81;;;-0.96;96.70
18323;BME280;9287;49.456;11.064;2023-02-28T07:41:17;99074.50;;;-0.92;96.18
18323;BME280;9287;49.456;11.064;2023-02-28T07:43:45;99075.81;;;-0.95;97.43
18323;BME280;9287;49.456;11.064;2023-02-28T07:46:16;99074.41;;;-0.76;95.06
18323;BME280;9287;49.456;11.064;2023-02-28T07:48:44;99076.53;;;-0.78;94.80
18323;BME280;9287;49.456;11.064;2023-02-28T07:51:12;99073.00;;;-0.56;94.08
18323;BME280;9287;49.456;11.064;2023-02-28T07:53:41;99075.84;;;-0.41;91.54
18323;BME280;9287;49.456;11.064;2023-02-28T07:56:09;99068.41;;;-0.29;91.18
18323;BME280;9287;49.456;11.064;2023-02-28T07:58:37;99079.59;;;-0.42;90.95
18323;BME280;9287;49.456;11.064;2023-02-28T08:01:06;99075.34;;;-0.38;90.65
18323;BME280;9287;49.456;11.064;2023-02-28T08:03:34;99075.97;;;0.06;88.99
18323;BME280;9287;49.456;11.064;2023-02-28T08:06:03;99074.09;;;-0.25;87.25
18323;BME280;9287;49.456;11.064;2023-02-28T08:08:31;99080.88;;;-0.18;88.14
18323;BME280;9287;49.456;11.064;2023-02-28T08:11:02;99068.66;;;0.02;84.15
18323;BME280;9287;49.456;11.064;2023-02-28T08:13:30;99067.56;;;0.82;82.60
18323;BME280;9287;49.456;11.064;2023-02-28T08:15:58;99074.50;;;1.81;71.41
18323;BME280;9287;49.456;11.064;2023-02-28T08:18:25;99072.44;;;2.98;64.14
18323;BME280;9287;49.456;11.064;2023-02-28T08:20:53;99065.50;;;2.76;61.61
18323;BME280;9287;49.456;11.064;2023-02-28T08:23:21;99077.88;;;2.93;60.49
18323;BME280;9287;49.456;11.064;2023-02-28T08:25:53;99082.28;;;2.43;62.31
18323;BME280;9287;49.456;11.064;2023-02-28T08:28:22;99084.06;;;3.87;57.23
18323;BME280;9287;49.456;11.064;2023-02-28T08:30:53;99080.66;;;4.92;54.91
18323;BME280;9287;49.456;11.064;2023-02-28T08:33:21;99077.28;;;5.42;52.86
18323;BME280;9287;49.456;11.064;2023-02-28T08:35:52;99078.38;;;2.95;57.30
18323;BME280;9287;49.456;11.064;2023-02-28T08:38:21;99074.44;;;4.09;55.66
18323;BME280;9287;49.456;11.064;2023-02-28T08:40:49;99075.03;;;3.23;57.46
18323;BME280;9287;49.456;11.064;2023-02-28T08:43:17;99078.69;;;3.42;57.74
18323;BME280;9287;49.456;11.064;2023-02-28T08:45:46;99065.38;;;3.95;55.74
18323;BME280;9287;49.456;11.064;2023-02-28T08:48:13;99076.13;;;2.32;58.99
18323;BME280;9287;49.456;11.064;2023-02-28T08:50:44;99076.13;;;3.17;57.77
18323;BME280;9287;49.456;11.064;2023-02-28T08:53:30;99087.69;;;2.53;58.94
18323;BME280;9287;49.456;11.064;2023-02-28T08:55:59;99078.84;;;1.87;61.05
18323;BME280;9287;49.456;11.064;2023-02-28T08:58:27;99071.28;;;2.19;60.55
18323;BME280;9287;49.456;11.064;2023-02-28T09:00:56;99077.22;;;1.96;61.46
18323;BME280;9287;49.456;11.064;2023-02-28T09:03:24;99069.94;;;1.91;62.84
18323;BME280;9287;49.456;11.064;2023-02-28T09:05:58;99066.69;;;2.40;60.06
18323;BME280;9287;49.456;11.064;2023-02-28T09:08:28;99072.25;;;2.74;59.64
18323;BME280;9287;49.456;11.064;2023-02-28T09:10:57;99067.25;;;2.17;61.58
18323;BME280;9287;49.456;11.064;2023-02-28T09:13:27;99063.91;;;2.75;58.92
18323;BME280;9287;49.456;11.064;2023-02-28T09:15:57;99074.97;;;2.64;59.28
18323;BME280;9287;49.456;11.064;2023-02-28T09:18:25;99073.50;;;3.02;57.80
18323;BME280;9287;49.456;11.064;2023-02-28T09:20:53;99069.34;;;2.55;58.28
18323;BME280;9287;49.456;11.064;2023-02-28T09:23:21;99069.94;;;2.22;58.25
18323;BME280;9287;49.456;11.064;2023-02-28T09:25:50;99066.34;;;2.67;57.87
18323;BME280;9287;49.456;11.064;2023-02-28T09:28:20;99066.09;;;2.53;57.36
18323;BME280;9287;49.456;11.064;2023-02-28T09:30:49;99066.09;;;2.53;57.77
18323;BME280;9287;49.456;11.064;2023-02-28T09:33:19;99074.16;;;2.68;57.64
18323;BME280;9287;49.456;11.064;2023-02-28T09:35:48;99072.03;;;3.25;55.63
18323;BME280;9287;49.456;11.064;2023-02-28T09:38:16;99080.09;;;3.35;55.45
18323;BME280;9287;49.456;11.064;2023-02-28T09:40:49;99071.09;;;4.17;53.25
18323;BME280;9287;49.456;11.064;2023-02-28T09:43:20;99068.81;;;3.67;53.57
18323;BME280;9287;49.456;11.064;2023-02-28T09:45:52;99072.44;;;3.91;52.57
18323;BME280;9287;49.456;11.064;2023-02-28T09:48:28;99084.81;;;3.97;52.79
18323;BME280;9287;49.456;11.064;2023-02-28T09:51:00;99068.91;;;4.25;52.08
18323;BME280;9287;49.456;11.064;2023-02-28T09:53:31;99069.78;;;2.93;54.35
18323;BME280;9287;49.456;11.064;2023-02-28T09:56:02;99079.88;;;3.26;53.94
18323;BME280;9287;49.456;11.064;2023-02-28T09:58:36;99072.88;;;3.15;54.13
18323;BME280;9287;49.456;11.064;2023-02-28T10:01:10;99076.09;;;3.22;54.09
18323;BME280;9287;49.456;11.064;2023-02-28T10:03:43;99085.50;;;3.79;52.84
18323;BME280;9287;49.456;11.064;2023-02-28T10:06:16;99069.59;;;4.64;51.55
18323;BME280;9287;49.456;11.064;2023-02-28T10:08:52;99070.91;;;4.90;50.05
18323;BME280;9287;49.456;11.064;2023-02-28T10:11:25;99070.06;;;6.26;46.81
18323;BME280;9287;49.456;11.064;2023-02-28T10:13:57;99067.34;;;5.56;47.76
18323;BME280;9287;49.456;11.064;2023-02-28T10:16:31;99073.31;;;5.16;47.31
18323;BME280;9287;49.456;11.064;2023-02-28T10:19:05;99074.31;;;6.33;45.83
18323;BME280;9287;49.456;11.064;2023-02-28T10:21:37;99075.28;;;7.74;43.35
18323;BME280;9287;49.456;11.064;2023-02-28T10:24:17;99065.72;;;7.13;43.40
18323;BME280;9287;49.456;11.064;2023-02-28T10:26:47;99073.16;;;6.66;43.76
18323;BME280;9287;49.456;11.064;2023-02-28T10:29:15;99079.88;;;6.55;44.55
18323;BME280;9287;49.456;11.064;2023-02-28T10:31:43;99065.00;;;5.69;46.14
18323;BME280;9287;49.456;11.064;2023-02-28T10:34:13;99068.97;;;6.87;43.69
18323;BME280;9287;49.456;11.064;2023-02-28T10:36:41;99065.88;;;5.83;44.16
18323;BME280;9287;49.456;11.064;2023-02-28T10:39:36;99068.72;;;5.16;46.32
18323;BME280;9287;49.456;11.064;2023-02-28T10:42:04;99061.25;;;6.35;44.86
18323;BME280;9287;49.456;11.064;2023-02-28T10:44:32;99060.91;;;6.82;44.14
18323;BME280;9287;49.456;11.064;2023-02-28T10:46:59;99064.13;;;5.92;45.18
18323;BME280;9287;49.456;11.064;2023-02-28T10:49:29;99067.78;;;6.34;44.20
18323;BME280;9287;49.456;11.064;2023-02-28T10:51:59;99055.53;;;5.10;45.99
18323;BME280;9287;49.456;11.064;2023-02-28T10:54:29;99057.88;;;5.91;45.26
18323;BME280;9287;49.456;11.064;2023-02-28T10:57:12;99067.63;;;5.74;45.63
18323;BME280;9287;49.456;11.064;2023-02-28T10:59:42;99065.94;;;5.78;44.84
18323;BME280;9287;49.456;11.064;2023-02-28T11:02:31;99066.84;;;6.24;44.17
18323;BME280;9287;49.456;11.064;2023-02-28T11:05:25;99064.50;;;6.64;43.92
18323;BME280;9287;49.456;11.064;2023-02-28T11:07:54;99062.09;;;6.76;43.40
18323;BME280;9287;49.456;11.064;2023-02-28T11:10:25;99057.38;;;6.68;43.13
18323;BME280;9287;49.456;11.064;2023-02-28T11:12:55;99064.91;;;6.11;43.83
18323;BME280;9287;49.456;11.064;2023-02-28T11:15:28;99064.72;;;6.81;43.23
18323;BME280;9287;49.456;11.064;2023-02-28T11:17:59;99062.94;;;5.98;44.15
18323;BME280;9287;49.456;11.064;2023-02-28T11:20:30;99058.50;;;5.51;45.14
18323;BME280;9287;49.456;11.064;2023-02-28T11:23:01;99051.41;;;5.36;45.14
18323;BME280;9287;49.456;11.064;2023-02-28T11:25:31;99055.91;;;5.41;45.37
18323;BME280;9287;49.456;11.064;2023-02-28T11:28:01;99062.84;;;4.85;45.58
18323;BME280;9287;49.456;11.064;2023-02-28T11:30:33;99060.59;;;5.73;44.65
18323;BME280;9287;49.456;11.064;2023-02-28T11:33:21;99059.13;;;5.99;44.40
18323;BME280;9287;49.456;11.064;2023-02-28T11:35:51;99056.34;;;6.04;44.47
18323;BME280;9287;49.456;11.064;2023-02-28T11:38:20;99056.94;;;6.01;44.08
18323;BME280;9287;49.456;11.064;2023-02-28T11:40:58;99058.41;;;6.26;43.59
18323;BME280;9287;49.456;11.064;2023-02-28T11:43:53;99049.94;;;6.14;44.07
18323;BME280;9287;49.456;11.064;2023-02-28T11:46:32;99047.44;;;6.91;42.72
18323;BME280;9287;49.456;11.064;2023-02-28T11:49:10;99045.03;;;6.89;42.35
18323;BME280;9287;49.456;11.064;2023-02-28T11:51:47;99048.53;;;6.76;42.87
18323;BME280;9287;49.456;11.064;2023-02-28T11:54:31;99033.09;;;6.31;43.63
18323;BME280;9287;49.456;11.064;2023-02-28T11:57:11;99027.13;;;7.74;41.04
18323;BME280;9287;49.456;11.064;2023-02-28T11:59:52;99039.38;;;7.49;41.81
18323;BME280;9287;49.456;11.064;2023-02-28T12:02:26;99040.28;;;7.58;40.61
18323;BME280;9287;49.456;11.064;2023-02-28T12:05:11;99049.06;;;8.00;41.02
18323;BME280;9287;49.456;11.064;2023-02-28T12:07:50;99043.56;;;7.33;41.53
18323;BME280;9287;49.456;11.064;2023-02-28T12:10:25;99043.41;;;8.63;39.21
18323;BME280;9287;49.456;11.064;2023-02-28T12:13:09;99048.94;;;8.05;40.38
18323;BME280;9287;49.456;11.064;2023-02-28T12:16:13;99042.31;;;8.73;38.96
18323;BME280;9287;49.456;11.064;2023-02-28T12:18:53;99029.97;;;10.10;36.68
18323;BME280;9287;49.456;11.064;2023-02-28T12:21:35;99025.28;;;8.98;39.12
18323;BME280;9287;49.456;11.064;2023-02-28T12:27:11;99021.44;;;8.60;38.88
18323;BME280;9287;49.456;11.064;2023-02-28T12:29:45;99021.97;;;9.53;37.97
18323;BME280;9287;49.456;11.064;2023-02-28T12:32:19;99019.00;;;10.44;36.98
18323;BME280;9287;49.456;11.064;2023-02-28T12:34:52;99020.84;;;9.97;37.33
18323;BME280;9287;49.456;11.064;2023-02-28T12:37:27;99008.81;;;9.90;37.29
18323;BME280;9287;49.456;11.064;2023-02-28T12:40:03;99009.56;;;8.95;38.69
18323;BME280;9287;49.456;11.064;2023-02-28T12:42:36;99004.81;;;8.70;38.57
18323;BME280;9287;49.456;11.064;2023-02-28T12:45:10;99009.69;;;8.51;38.86
18323;BME280;9287;49.456;11.064;2023-02-28T12:47:42;99012.25;;;7.72;40.36
18323;BME280;9287;49.456;11.064;2023-02-28T12:50:12;99002.72;;;9.41;37.94
18323;BME280;9287;49.456;11.064;2023-02-28T12:52:48;99014.94;;;9.35;37.76
18323;BME280;9287;49.456;11.064;2023-02-28T12:55:27;99014.47;;;7.92;40.08
18323;BME280;9287;49.456;11.064;2023-02-28T12:58:04;99005.81;;;8.12;39.96
18323;BME280;9287;49.456;11.064;2023-02-28T13:00:38;99001.31;;;8.38;39.40
18323;BME280;9287;49.456;11.064;2023-02-28T13:03:33;99006.72;;;8.61;39.09
18323;BME280;9287;49.456;11.064;2023-02-28T13:09:17;99007.06;;;7.61;40.28
18323;BME280;9287;49.456;11.064;2023-02-28T13:11:48;98999.66;;;7.40;40.53
18323;BME280;9287;49.456;11.064;2023-02-28T13:14:24;99007.13;;;7.34;40.50
18323;BME280;9287;49.456;11.064;2023-02-28T13:17:02;99006.13;;;7.30;41.38
18323;BME280;9287;49.456;11.064;2023-02-28T13:19:32;99007.81;;;6.49;42.81
18323;BME280;9287;49.456;11.064;2023-02-28T13:22:02;99019.63;;;6.25;43.71
18323;BME280;9287;49.456;11.064;2023-02-28T13:24:40;99004.78;;;6.64;42.97
18323;BME280;9287;49.456;11.064;2023-02-28T13:27:37;99004.00;;;6.36;43.75
18323;BME280;9287;49.456;11.064;2023-02-28T13:33:22;98994.34;;;6.44;43.15